Time;durP1;ratioP1;P1;durP2;ratioP2;P2;SDS_P1;SDS_P2;PMS_P1;PMS_P2;Temp;Humidity;BMP_temperature;BMP_pressure;BME280_temperature;BME280_humidity;BME280_pressure;Samples;Min_cycle;Max_cycle;Signal;HPM_P1;HPM_P2
2023/03/14 00:06:34;;;;;;;2.92;1.20;;;11.20;1.00;;;;;;25867616;22;20345;-41
2023/03/14 00:16:35;;;;;;;3.88;1.00;;;11.30;1.00;;;;;;25871288;22;20054;-41
2023/03/14 00:26:36;;;;;;;10.05;1.85;;;11.40;1.00;;;;;;25876099;22;20635;-41
2023/03/14 00:36:38;;;;;;;6.38;1.58;;;11.40;1.00;;;;;;25881718;22;20445;-41
2023/03/14 00:46:39;;;;;;;6.22;1.40;;;11.20;1.00;;;;;;25881192;22;20113;-41
2023/03/14 00:56:40;;;;;;;2.40;0.55;;;11.10;1.00;;;;;;25878574;22;20602;-41
2023/03/14 01:06:41;;;;;;;3.05;1.23;;;11.00;1.00;;;;;;25873886;22;20389;-41
2023/03/14 01:16:42;;;;;;;4.53;1.33;;;10.70;1.00;;;;;;25874645;22;20031;-41
2023/03/14 01:26:43;;;;;;;3.60;0.65;;;10.50;5.50;;;;;;25886942;22;20015;-41
2023/03/14 01:36:45;;;;;;;4.00;1.83;;;10.30;16.90;;;;;;25884641;22;20047;-41
2023/03/14 01:46:46;;;;;;;4.07;1.35;;;10.10;19.30;;;;;;25885241;22;20012;-41
2023/03/14 01:57:10;;;;;;;5.93;1.73;;;10.20;18.50;;;;;;25890292;22;20290;-42
2023/03/14 02:07:22;;;;;;;6.53;2.10;;;10.20;16.30;;;;;;25884052;22;20012;-41
2023/03/14 02:17:24;;;;;;;3.15;0.82;;;10.30;14.20;;;;;;25880589;22;20023;-41
2023/03/14 02:27:26;;;;;;;2.33;0.85;;;10.30;13.70;;;;;;25880002;22;20090;-41
2023/03/14 02:37:36;;;;;;;2.92;0.60;;;10.30;14.50;;;;;;25887781;22;20034;-41
2023/03/14 02:47:42;;;;;;;3.90;1.00;;;10.10;15.40;;;;;;25869944;22;20011;-41
2023/03/14 02:57:44;;;;;;;2.40;0.70;;;10.10;18.50;;;;;;25880535;22;20020;-41
2023/03/14 03:07:45;;;;;;;2.47;0.80;;;10.10;19.50;;;;;;25851675;22;20011;-41
2023/03/14 03:17:46;;;;;;;3.83;0.90;;;10.00;19.80;;;;;;25879517;22;20011;-41
2023/03/14 03:27:47;;;;;;;12.30;1.05;;;10.10;22.80;;;;;;25880518;22;20038;-41
2023/03/14 03:37:48;;;;;;;3.88;1.52;;;10.00;24.00;;;;;;25845380;22;20042;-41
2023/03/14 03:47:49;;;;;;;3.20;1.13;;;10.10;22.20;;;;;;25880258;22;20035;-41
2023/03/14 03:57:50;;;;;;;4.05;1.42;;;10.20;19.00;;;;;;25871865;22;20169;-41
2023/03/14 04:07:51;;;;;;;2.35;0.60;;;10.20;16.30;;;;;;25881641;22;20011;-41
2023/03/14 04:17:57;;;;;;;8.70;1.30;;;10.20;14.70;;;;;;25875881;22;20012;-41
2023/03/14 04:27:58;;;;;;;4.00;1.00;;;10.30;14.10;;;;;;25868952;22;20503;-42
2023/03/14 04:38:00;;;;;;;2.33;0.70;;;10.30;14.00;;;;;;25875426;22;20020;-41
2023/03/14 04:48:01;;;;;;;1.73;0.65;;;10.30;13.90;;;;;;25880222;22;20011;-40
2023/03/14 04:58:02;;;;;;;4.63;0.73;;;10.20;25.90;;;;;;25876434;22;20016;-40
2023/03/14 05:08:03;;;;;;;2.47;0.70;;;9.80;60.90;;;;;;25886189;22;20041;-40
2023/03/14 05:18:04;;;;;;;2.97;0.82;;;9.60;99.90;;;;;;25877331;22;20024;-39
2023/03/14 05:28:05;;;;;;;3.30;0.88;;;9.30;99.90;;;;;;25874201;22;20441;-39
2023/03/14 05:38:06;;;;;;;1.80;0.50;;;9.30;99.90;;;;;;25850754;22;20409;-40
2023/03/14 05:48:07;;;;;;;1.33;0.52;;;9.20;99.90;;;;;;25887324;22;20018;-39
2023/03/14 05:58:08;;;;;;;2.75;1.15;;;9.20;99.90;;;;;;25883149;22;20043;-40
2023/03/14 06:08:10;;;;;;;2.65;1.05;;;9.10;99.90;;;;;;25881280;22;20016;-39
2023/03/14 06:18:13;;;;;;;1.95;0.45;;;9.10;99.90;;;;;;25878476;22;20020;-40
2023/03/14 06:28:14;;;;;;;0.30;0.20;;;8.80;99.90;;;;;;25875693;22;20012;-40
2023/03/14 06:38:15;;;;;;;2.28;0.50;;;8.50;99.90;;;;;;25883189;22;20019;-40
2023/03/14 06:48:18;;;;;;;4.38;0.70;;;8.30;99.90;;;;;;25892999;22;20018;-40
2023/03/14 06:58:20;;;;;;;0.85;0.35;;;8.20;99.90;;;;;;25885191;22;20004;-41
2023/03/14 07:08:21;;;;;;;0.55;0.20;;;8.10;99.90;;;;;;25885383;22;20011;-41
2023/03/14 07:18:22;;;;;;;1.25;0.50;;;7.90;99.90;;;;;;25891936;22;20018;-41
2023/03/14 07:28:23;;;;;;;1.30;0.57;;;7.70;99.90;;;;;;25887944;22;20428;-40
2023/03/14 07:38:24;;;;;;;1.17;0.75;;;7.70;99.90;;;;;;25884880;22;20030;-40
2023/03/14 07:48:26;;;;;;;0.30;0.17;;;7.60;99.90;;;;;;25885569;22;20011;-39
2023/03/14 07:58:27;;;;;;;1.30;0.10;;;7.50;99.90;;;;;;25880071;22;20476;-40
2023/03/14 08:08:28;;;;;;;2.63;0.30;;;7.40;99.90;;;;;;25854669;22;20030;-40
2023/03/14 08:18:30;;;;;;;3.65;0.90;;;6.90;99.90;;;;;;25882430;22;20018;-40
2023/03/14 08:28:33;;;;;;;3.08;0.73;;;6.50;99.90;;;;;;25870901;22;20033;-40
2023/03/14 08:38:34;;;;;;;0.93;0.68;;;6.40;99.90;;;;;;25863528;22;20032;-40
2023/03/14 08:48:35;;;;;;;0.47;0.17;;;6.40;99.90;;;;;;25879573;22;20061;-40
2023/03/14 08:58:37;;;;;;;3.65;1.23;;;6.50;99.90;;;;;;25879756;22;20495;-40
2023/03/14 09:08:38;;;;;;;4.97;1.08;;;6.80;99.90;;;;;;25880917;22;20011;-40
2023/03/14 09:18:39;;;;;;;2.95;1.23;;;6.70;59.00;;;;;;25868151;22;20018;-40
2023/03/14 09:28:40;;;;;;;3.03;0.82;;;6.80;47.10;;;;;;25883631;22;20018;-41
2023/03/14 09:38:42;;;;;;;5.22;1.80;;;6.80;40.20;;;;;;25888895;22;20369;-40
2023/03/14 09:48:44;;;;;;;2.47;0.80;;;6.90;39.60;;;;;;25872226;22;20016;-40
2023/03/14 09:58:51;;;;;;;13.15;3.25;;;7.00;24.30;;;;;;25904513;22;20322;-41
2023/03/14 10:08:53;;;;;;;5.13;1.67;;;7.00;22.10;;;;;;25896548;22;20537;-40
2023/03/14 10:19:06;;;;;;;9.13;1.95;;;6.80;20.70;;;;;;25907948;22;20024;-40
2023/03/14 10:29:13;;;;;;;3.38;1.23;;;6.70;18.20;;;;;;25858031;22;20023;-41
2023/03/14 10:39:51;;;;;;;4.25;1.55;;;7.10;16.20;;;;;;25897389;22;20032;-41
2023/03/14 10:49:52;;;;;;;5.85;2.60;;;7.30;8.50;;;;;;25785456;22;20016;-41
2023/03/14 10:59:56;;;;;;;7.10;1.65;;;7.10;5.40;;;;;;25864189;22;20455;-41
2023/03/14 11:10:32;;;;;;;9.35;3.42;;;7.10;2.90;;;;;;25901765;22;20127;-41
2023/03/14 11:20:44;;;;;;;8.88;2.58;;;7.90;1.00;;;;;;25893305;22;21307;-41
2023/03/14 11:30:45;;;;;;;5.40;0.68;;;8.90;1.00;;;;;;25903649;22;20051;-41
2023/03/14 11:40:49;;;;;;;4.38;1.15;;;9.40;1.00;;;;;;25910817;22;20089;-41
2023/03/14 11:50:54;;;;;;;3.92;1.55;;;9.90;1.00;;;;;;25898591;22;20019;-41
2023/03/14 12:01:02;;;;;;;5.90;1.23;;;9.80;1.00;;;;;;25900594;22;20016;-41
2023/03/14 12:11:15;;;;;;;5.43;0.87;;;9.70;1.00;;;;;;25900010;22;20336;-41
2023/03/14 12:21:16;;;;;;;3.28;1.00;;;9.60;1.00;;;;;;25842565;22;20012;-41
2023/03/14 12:31:28;;;;;;;6.60;1.92;;;10.00;1.00;;;;;;25770265;22;20326;-41
2023/03/14 12:41:51;;;;;;;2.70;1.02;;;10.90;1.00;;;;;;25881318;22;20027;-41
2023/03/14 12:51:59;;;;;;;1.27;0.52;;;11.40;1.00;;;;;;25861341;22;20552;-41
2023/03/14 13:02:14;;;;;;;2.15;0.38;;;11.50;1.00;;;;;;25882664;22;20637;-41
2023/03/14 13:12:18;;;;;;;1.17;0.40;;;10.20;1.00;;;;;;25884568;22;20016;-40
2023/03/14 13:22:30;;;;;;;4.78;1.88;;;9.20;1.00;;;;;;25897283;22;20316;-40
2023/03/14 13:32:31;;;;;;;2.55;0.50;;;10.30;1.00;;;;;;25885428;22;20011;-41
2023/03/14 13:42:32;;;;;;;2.25;0.60;;;11.50;1.00;;;;;;25889419;22;20026;-41
2023/03/14 13:52:38;;;;;;;1.52;0.82;;;12.50;1.00;;;;;;25896351;22;20240;-41
2023/03/14 14:02:39;;;;;;;3.88;1.42;;;13.10;1.00;;;;;;25891626;22;20011;-41
2023/03/14 14:12:54;;;;;;;6.07;0.40;;;11.70;1.00;;;;;;25887704;22;20008;-41
2023/03/14 14:22:55;;;;;;;1.83;0.30;;;9.80;1.00;;;;;;25884546;22;20065;-41
2023/03/14 14:33:13;;;;;;;1.40;0.30;;;9.00;1.00;;;;;;25877079;22;20016;-41
2023/03/14 14:43:20;;;;;;;2.00;0.50;;;8.50;1.00;;;;;;25886259;22;20020;-41
2023/03/14 14:53:30;;;;;;;3.05;0.63;;;8.10;1.00;;;;;;25888136;22;20033;-41
2023/03/14 15:03:34;;;;;;;1.42;0.52;;;7.90;1.00;;;;;;25887845;22;20339;-41
2023/03/14 15:13:35;;;;;;;1.85;0.65;;;8.00;1.00;;;;;;25884396;22;20032;-41
2023/03/14 15:23:36;;;;;;;0.90;0.30;;;7.90;1.00;;;;;;25862164;22;20007;-41
2023/03/14 15:33:37;;;;;;;3.70;0.98;;;7.90;1.00;;;;;;25889487;22;20352;-41
2023/03/14 15:43:38;;;;;;;1.38;0.40;;;8.00;1.00;;;;;;25876906;22;20034;-41
2023/03/14 15:53:40;;;;;;;3.47;0.43;;;7.90;1.00;;;;;;25885264;22;20011;-41
2023/03/14 16:03:43;;;;;;;16.65;1.50;;;7.70;1.00;;;;;;25878575;22;20012;-41
2023/03/14 16:13:44;;;;;;;1.05;0.32;;;7.80;1.00;;;;;;25885812;22;20243;-41
2023/03/14 16:23:46;;;;;;;1.58;0.52;;;7.60;1.00;;;;;;25885904;22;20088;-41
2023/03/14 16:33:47;;;;;;;1.20;0.47;;;7.50;1.00;;;;;;25887391;22;20353;-41
2023/03/14 16:43:50;;;;;;;1.25;0.40;;;7.40;1.00;;;;;;25883277;22;20475;-41
2023/03/14 16:53:51;;;;;;;1.23;0.45;;;7.30;1.00;;;;;;25885207;22;20012;-41
2023/03/14 17:03:53;;;;;;;4.43;1.38;;;7.20;1.00;;;;;;25885060;22;20007;-41
2023/03/14 17:13:54;;;;;;;2.38;0.50;;;7.10;1.00;;;;;;25885634;22;20015;-41
2023/03/14 17:23:55;;;;;;;2.65;0.73;;;6.90;1.00;;;;;;25886514;22;20178;-41
2023/03/14 17:33:56;;;;;;;1.63;0.68;;;6.80;1.00;;;;;;25870968;22;20094;-40
2023/03/14 17:43:57;;;;;;;5.55;1.02;;;6.50;1.00;;;;;;25890330;22;20023;-40
2023/03/14 17:53:58;;;;;;;8.52;1.05;;;6.40;1.00;;;;;;25900683;22;20090;-40
2023/03/14 18:04:00;;;;;;;1.95;0.43;;;6.20;1.00;;;;;;25909259;22;20396;-41
2023/03/14 18:14:06;;;;;;;1.67;0.70;;;6.00;1.00;;;;;;25907867;22;20030;-41
2023/03/14 18:24:07;;;;;;;7.35;2.22;;;5.90;1.00;;;;;;25883214;22;20015;-41
2023/03/14 18:34:10;;;;;;;2.22;1.15;;;5.70;1.00;;;;;;25868478;22;20592;-41
2023/03/14 18:44:11;;;;;;;7.15;3.22;;;5.60;1.00;;;;;;25903541;22;20019;-41
2023/03/14 18:54:12;;;;;;;7.43;3.47;;;5.40;1.00;;;;;;25891534;22;20752;-43
2023/03/14 19:04:13;;;;;;;7.03;2.97;;;5.30;1.00;;;;;;25911658;22;20011;-41
2023/03/14 19:14:16;;;;;;;8.85;3.90;;;5.10;1.00;;;;;;25907126;22;20046;-41
2023/03/14 19:24:19;;;;;;;7.75;4.38;;;4.90;1.00;;;;;;25900458;22;20015;-43
2023/03/14 19:34:21;;;;;;;10.15;2.45;;;4.60;1.00;;;;;;25892085;22;20099;-41
2023/03/14 19:44:25;;;;;;;4.75;2.97;;;4.70;1.00;;;;;;25895312;22;20515;-41
2023/03/14 19:54:26;;;;;;;2.17;0.63;;;4.70;1.00;;;;;;25895522;22;20038;-41
2023/03/14 20:04:28;;;;;;;3.90;1.90;;;4.80;1.00;;;;;;25897578;22;20467;-41
2023/03/14 20:14:29;;;;;;;2.72;1.33;;;4.80;1.00;;;;;;25892077;22;20327;-41
2023/03/14 20:24:31;;;;;;;8.35;1.52;;;4.70;1.00;;;;;;25878389;22;20015;-41
2023/03/14 20:34:33;;;;;;;2.00;1.00;;;4.80;1.00;;;;;;25895514;22;20035;-40
2023/03/14 20:44:34;;;;;;;4.00;1.35;;;4.80;1.00;;;;;;25898475;22;20012;-41
2023/03/14 20:54:35;;;;;;;1.48;0.73;;;4.70;1.00;;;;;;25898979;22;20011;-41
2023/03/14 21:04:36;;;;;;;1.60;0.32;;;4.60;1.00;;;;;;25897112;22;20011;-41
2023/03/14 21:14:37;;;;;;;2.03;1.00;;;4.70;1.00;;;;;;25882407;22;20109;-41
2023/03/14 21:24:38;;;;;;;6.30;1.40;;;4.80;1.00;;;;;;25895781;22;20014;-40
2023/03/14 21:34:39;;;;;;;1.25;0.55;;;5.20;1.00;;;;;;25905095;22;20018;-41
2023/03/14 21:44:45;;;;;;;1.67;0.85;;;5.10;1.00;;;;;;25906335;22;20011;-41
2023/03/14 21:54:47;;;;;;;0.63;0.28;;;4.90;1.00;;;;;;25892868;22;20020;-41
2023/03/14 22:04:48;;;;;;;0.65;0.28;;;4.90;1.00;;;;;;25880787;22;20037;-41
2023/03/14 22:14:49;;;;;;;0.63;0.25;;;5.10;1.00;;;;;;25897364;22;20091;-41
2023/03/14 22:24:52;;;;;;;2.50;0.38;;;4.10;1.00;;;;;;25895717;22;20008;-41
2023/03/14 22:34:56;;;;;;;0.03;0.03;;;3.70;14.00;;;;;;25765144;22;20040;-41
2023/03/14 22:44:57;;;;;;;0.22;0.10;;;3.60;32.40;;;;;;25860127;22;20424;-41
2023/03/14 22:54:59;;;;;;;0.45;0.20;;;3.50;45.80;;;;;;25899809;22;20050;-41
2023/03/14 23:05:00;;;;;;;1.23;0.10;;;3.60;57.30;;;;;;25903773;22;20015;-40
2023/03/14 23:15:01;;;;;;;0.68;0.20;;;3.20;36.70;;;;;;25896149;22;20016;-41
2023/03/14 23:25:03;;;;;;;0.30;0.10;;;2.80;46.40;;;;;;25896792;22;20018;-41
2023/03/14 23:35:04;;;;;;;5.57;0.30;;;2.80;85.10;;;;;;25899804;22;20019;-41
2023/03/14 23:45:08;;;;;;;2.33;0.17;;;3.10;99.90;;;;;;25901066;22;20027;-41
2023/03/14 23:55:10;;;;;;;0.52;0.30;;;3.20;99.90;;;;;;25877281;22;20022;-41
